createdAt,value
2019-04-27T00:01:14.427Z,72.30
2019-04-27T00:03:53.903Z,72.50
2019-04-27T00:06:23.924Z,72.60
2019-04-27T00:08:56.751Z,72.60
2019-04-27T00:11:42.131Z,72.50
2019-04-27T00:14:14.234Z,72.60
2019-04-27T00:17:01.647Z,72.80
2019-04-27T00:19:47.860Z,73.00
2019-04-27T00:22:26.442Z,73.00
2019-04-27T00:24:55.740Z,73.00
2019-04-27T00:27:25.180Z,73.00
2019-04-27T00:29:55.117Z,72.80
2019-04-27T00:32:25.112Z,72.60
2019-04-27T00:34:54.849Z,72.70
2019-04-27T00:37:42.633Z,72.20
2019-04-27T00:40:35.314Z,72.40
2019-04-27T00:43:04.968Z,72.50
2019-04-27T00:45:34.456Z,72.60
2019-04-27T00:48:04.735Z,72.80
2019-04-27T00:50:34.806Z,72.90
2019-04-27T00:53:08.932Z,72.70
2019-04-27T00:55:45.711Z,72.70
2019-04-27T00:58:35.264Z,72.50
2019-04-27T01:01:29.692Z,72.50
2019-04-27T01:04:06.224Z,72.70
2019-04-27T01:06:38.432Z,72.50
2019-04-27T01:09:09.484Z,72.70
2019-04-27T01:11:38.758Z,72.60
2019-04-27T01:14:08.467Z,72.60
2019-04-27T01:16:40.054Z,72.60
2019-04-27T01:19:10.412Z,73.30
2019-04-27T01:21:40.015Z,72.70
2019-04-27T01:24:09.671Z,72.70
2019-04-27T01:26:54.227Z,72.70
2019-04-27T01:29:25.575Z,72.60
2019-04-27T01:31:55.456Z,72.60
2019-04-27T01:34:24.739Z,72.60
2019-04-27T01:36:54.391Z,72.70
2019-04-27T01:39:26.706Z,72.80
2019-04-27T01:41:59.055Z,72.80
2019-04-27T01:44:29.643Z,72.70
2019-04-27T01:46:59.907Z,72.70
2019-04-27T01:49:29.621Z,72.70
2019-04-27T01:51:59.537Z,72.90
2019-04-27T01:54:29.973Z,72.80
2019-04-27T01:57:01.007Z,72.90
2019-04-27T01:59:38.644Z,73.00
2019-04-27T02:02:45.964Z,72.90
2019-04-27T02:05:34.854Z,72.90
2019-04-27T02:08:05.054Z,72.90
2019-04-27T02:10:35.751Z,73.00
2019-04-27T02:13:08.968Z,72.90
2019-04-27T02:15:39.557Z,72.90
2019-04-27T02:18:09.708Z,72.90
2019-04-27T02:20:39.591Z,73.00
2019-04-27T02:23:09.250Z,73.00
2019-04-27T02:25:39.711Z,72.90
2019-04-27T02:28:19.558Z,73.60
2019-04-27T02:31:26.495Z,73.00
2019-04-27T02:34:04.307Z,72.90
2019-04-27T02:36:34.303Z,72.90
2019-04-27T02:39:04.989Z,72.90
2019-04-27T02:41:34.700Z,72.80
2019-04-27T02:44:21.250Z,73.00
2019-04-27T02:46:50.817Z,73.00
2019-04-27T02:49:22.708Z,73.10
2019-04-27T02:51:59.555Z,73.10
2019-04-27T02:54:30.259Z,73.40
2019-04-27T02:56:59.895Z,73.50
2019-04-27T02:59:30.315Z,73.50
2019-04-27T03:02:16.230Z,73.60
2019-04-27T03:04:49.829Z,73.40
2019-04-27T03:07:20.208Z,73.20
2019-04-27T03:09:50.948Z,73.10
2019-04-27T03:12:22.348Z,73.00
2019-04-27T03:15:06.435Z,73.00
2019-04-27T03:17:55.302Z,73.10
2019-04-27T03:20:36.122Z,73.00
2019-04-27T03:23:09.553Z,73.10
2019-04-27T03:26:10.662Z,73.10
2019-04-27T03:28:40.781Z,73.10
2019-04-27T03:31:13.438Z,73.10
2019-04-27T03:33:43.101Z,73.10
2019-04-27T03:36:13.584Z,73.10
2019-04-27T03:38:44.919Z,73.00
2019-04-27T03:41:14.720Z,73.20
2019-04-27T03:43:45.642Z,73.20
2019-04-27T03:46:16.282Z,73.20
2019-04-27T03:48:45.999Z,73.30
2019-04-27T03:51:34.404Z,73.30
2019-04-27T03:54:40.132Z,73.30
2019-04-27T03:57:15.922Z,73.40
2019-04-27T04:00:05.298Z,73.50
2019-04-27T04:02:34.733Z,73.60
2019-04-27T04:05:04.475Z,73.60
2019-04-27T04:07:34.465Z,73.80
2019-04-27T04:10:04.519Z,73.80
2019-04-27T04:12:55.555Z,73.80
2019-04-27T04:15:30.469Z,73.90
2019-04-27T04:18:00.298Z,74.00
2019-04-27T04:20:31.808Z,74.00
2019-04-27T04:23:03.252Z,74.00
2019-04-27T04:25:33.060Z,74.00
2019-04-27T04:28:05.620Z,74.10
2019-04-27T04:30:35.058Z,74.20
2019-04-27T04:33:05.211Z,74.10
2019-04-27T04:35:35.621Z,74.30
2019-04-27T04:38:05.436Z,75.10
2019-04-27T04:40:40.820Z,74.50
2019-04-27T04:43:25.948Z,74.60
2019-04-27T04:46:22.954Z,75.00
2019-04-27T04:48:55.310Z,74.90
2019-04-27T04:51:25.570Z,75.00
2019-04-27T04:53:55.602Z,75.60
2019-04-27T04:56:26.059Z,74.90
2019-04-27T04:58:56.772Z,74.70
2019-04-27T05:01:26.463Z,74.80
2019-04-27T05:03:55.714Z,74.70
2019-04-27T05:06:25.926Z,74.70
2019-04-27T05:08:59.497Z,74.80
2019-04-27T05:11:33.159Z,74.70
2019-04-27T05:14:03.974Z,74.70
2019-04-27T05:16:33.678Z,74.70
2019-04-27T05:19:06.542Z,74.90
2019-04-27T05:21:39.394Z,75.00
2019-04-27T05:24:09.499Z,74.80
2019-04-27T05:26:39.842Z,74.90
2019-04-27T05:29:11.004Z,74.90
2019-04-27T05:31:41.660Z,75.70
2019-04-27T05:34:12.283Z,75.00
2019-04-27T05:36:48.513Z,75.20
2019-04-27T05:39:19.966Z,75.30
2019-04-27T05:41:46.237Z,75.40
2019-04-27T05:44:39.688Z,75.30
2019-04-27T05:47:20.621Z,75.50
2019-04-27T05:49:56.230Z,75.50
2019-04-27T05:52:29.972Z,75.40
2019-04-27T05:55:00.000Z,76.10
2019-04-27T05:57:31.471Z,75.40
2019-04-27T06:00:09.031Z,75.20
2019-04-27T06:02:39.809Z,75.10
2019-04-27T06:05:10.499Z,75.30
2019-04-27T06:07:44.344Z,75.20
2019-04-27T06:10:14.725Z,75.10
2019-04-27T06:12:48.629Z,75.10
2019-04-27T06:15:19.904Z,75.20
2019-04-27T06:17:50.821Z,75.30
2019-04-27T06:20:19.935Z,75.40
2019-04-27T06:22:49.427Z,75.30
2019-04-27T06:25:21.491Z,75.30
2019-04-27T06:27:50.275Z,75.40
2019-04-27T06:30:20.215Z,75.40
2019-04-27T06:32:49.519Z,75.40
2019-04-27T06:35:19.131Z,75.50
2019-04-27T06:37:49.293Z,75.70
2019-04-27T06:40:18.837Z,75.80
2019-04-27T06:42:48.594Z,75.80
2019-04-27T06:45:19.630Z,75.70
2019-04-27T06:47:51.196Z,75.60
2019-04-27T06:50:19.801Z,75.80
2019-04-27T06:52:49.064Z,76.60
2019-04-27T06:55:18.896Z,75.90
2019-04-27T06:57:49.081Z,75.90
2019-04-27T07:00:19.038Z,76.00
2019-04-27T07:02:49.274Z,76.20
2019-04-27T07:05:20.263Z,76.30
2019-04-27T07:07:49.330Z,76.20
2019-04-27T07:10:18.664Z,76.20
2019-04-27T07:12:49.135Z,76.20
2019-04-27T07:15:20.132Z,76.60
2019-04-27T07:18:26.128Z,76.40
2019-04-27T07:20:38.761Z,76.40
2019-04-27T07:23:09.494Z,76.10
2019-04-27T07:25:38.906Z,75.70
2019-04-27T07:28:09.192Z,75.80
2019-04-27T07:30:38.796Z,75.30
2019-04-27T07:33:08.743Z,75.90
2019-04-27T07:35:39.291Z,75.80
2019-04-27T07:38:09.862Z,75.50
2019-04-27T07:40:41.738Z,75.00
2019-04-27T07:43:18.786Z,74.80
2019-04-27T07:45:49.425Z,75.00
2019-04-27T07:48:18.902Z,74.80
2019-04-27T07:50:48.661Z,75.00
2019-04-27T07:53:19.337Z,74.60
2019-04-27T07:55:49.515Z,74.80
2019-04-27T07:58:20.591Z,74.60
2019-04-27T08:00:49.177Z,74.60
2019-04-27T08:03:19.643Z,74.90
2019-04-27T08:05:49.197Z,74.90
2019-04-27T08:08:19.024Z,75.10
2019-04-27T08:10:50.154Z,75.20
2019-04-27T08:13:19.481Z,75.30
2019-04-27T08:15:49.587Z,75.50
2019-04-27T08:18:19.070Z,75.40
2019-04-27T08:20:49.135Z,75.20
2019-04-27T08:23:19.538Z,75.50
2019-04-27T08:25:51.129Z,75.60
2019-04-27T08:28:48.610Z,75.80
2019-04-27T08:31:25.522Z,75.70
2019-04-27T08:33:54.322Z,75.70
2019-04-27T08:36:23.457Z,75.70
2019-04-27T08:38:52.774Z,75.60
2019-04-27T08:41:22.133Z,75.70
2019-04-27T08:43:51.228Z,75.80
2019-04-27T08:46:20.130Z,75.90
2019-04-27T08:48:49.151Z,75.90
2019-04-27T08:51:19.614Z,75.90
2019-04-27T08:53:50.159Z,76.00
2019-04-27T08:56:19.438Z,76.30
2019-04-27T08:58:49.691Z,76.20
2019-04-27T09:01:20.779Z,76.20
2019-04-27T09:03:49.648Z,76.10
2019-04-27T09:06:19.088Z,76.50
2019-04-27T09:09:09.356Z,76.30
2019-04-27T09:11:45.569Z,76.30
2019-04-27T09:14:25.277Z,76.40
2019-04-27T09:17:29.181Z,76.30
2019-04-27T09:20:03.081Z,76.50
2019-04-27T09:22:32.035Z,76.60
2019-04-27T09:25:00.991Z,76.60
2019-04-27T09:27:30.339Z,76.40
2019-04-27T09:29:59.564Z,76.70
2019-04-27T09:32:28.982Z,76.60
2019-04-27T09:34:58.091Z,76.50
2019-04-27T09:37:27.489Z,76.50
2019-04-27T09:39:56.816Z,76.60
2019-04-27T09:42:26.814Z,76.60
2019-04-27T09:44:56.381Z,76.40
2019-04-27T09:47:26.656Z,76.50
2019-04-27T09:49:56.558Z,76.70
2019-04-27T09:52:28.523Z,76.80
2019-04-27T09:54:56.717Z,76.70
2019-04-27T09:57:26.060Z,76.60
2019-04-27T09:59:56.480Z,76.70
2019-04-27T10:02:26.965Z,76.60
2019-04-27T10:04:56.581Z,76.80
2019-04-27T10:07:26.816Z,77.20
2019-04-27T10:09:56.079Z,77.10
2019-04-27T10:12:26.069Z,76.90
2019-04-27T10:14:56.014Z,77.10
2019-04-27T10:17:25.325Z,77.10
2019-04-27T10:19:54.535Z,77.00
2019-04-27T10:22:39.369Z,77.50
2019-04-27T10:24:54.780Z,76.90
2019-04-27T10:27:25.811Z,76.00
2019-04-27T10:29:54.310Z,76.00
2019-04-27T10:32:23.206Z,76.50
2019-04-27T10:34:52.401Z,76.40
2019-04-27T10:37:21.949Z,76.30
2019-04-27T10:39:50.794Z,76.30
2019-04-27T10:42:19.830Z,76.60
2019-04-27T10:44:48.880Z,76.40
2019-04-27T10:47:17.878Z,76.30
2019-04-27T10:49:48.473Z,76.50
2019-04-27T10:52:17.697Z,76.50
2019-04-27T10:54:46.602Z,76.30
2019-04-27T10:57:15.900Z,76.60
2019-04-27T10:59:46.189Z,76.20
2019-04-27T11:02:15.528Z,76.30
2019-04-27T11:04:54.396Z,76.50
2019-04-27T11:07:26.017Z,76.70
2019-04-27T11:09:55.499Z,77.00
2019-04-27T11:12:25.009Z,77.10
2019-04-27T11:14:53.870Z,76.90
2019-04-27T11:17:22.955Z,77.80
2019-04-27T11:19:51.933Z,77.20
2019-04-27T11:22:21.140Z,77.10
2019-04-27T11:24:50.038Z,77.30
2019-04-27T11:27:19.108Z,77.30
2019-04-27T11:29:48.017Z,77.10
2019-04-27T11:32:17.022Z,77.10
2019-04-27T11:35:12.227Z,76.70
2019-04-27T11:37:41.102Z,76.60
2019-04-27T11:40:11.267Z,76.70
2019-04-27T11:42:40.141Z,76.90
2019-04-27T11:45:10.061Z,77.00
2019-04-27T11:47:39.278Z,76.90
2019-04-27T11:50:11.430Z,76.60
2019-04-27T11:52:40.628Z,76.90
2019-04-27T11:55:09.986Z,76.50
2019-04-27T11:57:39.115Z,76.30
2019-04-27T12:00:12.270Z,76.30
2019-04-27T12:02:41.685Z,76.30
2019-04-27T12:05:10.832Z,76.10
2019-04-27T12:07:39.856Z,76.10
2019-04-27T12:10:09.251Z,76.30
2019-04-27T12:12:38.382Z,76.30
2019-04-27T12:15:08.089Z,76.70
2019-04-27T12:17:37.269Z,76.50
2019-04-27T12:20:07.291Z,76.80
2019-04-27T12:22:36.108Z,76.90
2019-04-27T12:25:06.639Z,76.60
2019-04-27T12:27:53.029Z,76.40
2019-04-27T12:30:32.163Z,76.30
2019-04-27T12:33:02.638Z,76.50
2019-04-27T12:35:31.666Z,76.80
2019-04-27T12:38:00.655Z,77.00
2019-04-27T12:40:29.598Z,77.50
2019-04-27T12:42:58.581Z,77.50
2019-04-27T12:45:27.490Z,77.40
2019-04-27T12:47:56.689Z,77.00
2019-04-27T12:50:26.251Z,76.90
2019-04-27T12:52:58.455Z,76.90
2019-04-27T12:55:51.427Z,76.40
2019-04-27T12:58:30.938Z,76.60
2019-04-27T13:01:00.596Z,76.50
2019-04-27T13:03:29.478Z,76.90
2019-04-27T13:05:58.578Z,76.60
2019-04-27T13:08:27.641Z,76.60
2019-04-27T13:10:57.397Z,76.50
2019-04-27T13:13:26.800Z,76.20
2019-04-27T13:15:56.431Z,76.10
2019-04-27T13:18:25.892Z,75.70
2019-04-27T13:20:55.004Z,75.90
2019-04-27T13:23:23.943Z,75.80
2019-04-27T13:25:52.864Z,75.50
2019-04-27T13:28:21.734Z,75.50
2019-04-27T13:30:50.803Z,75.60
2019-04-27T13:33:19.670Z,75.20
2019-04-27T13:35:48.947Z,74.60
2019-04-27T13:38:18.181Z,74.50
2019-04-27T13:41:05.887Z,74.70
2019-04-27T13:43:36.251Z,74.70
2019-04-27T13:46:27.019Z,74.70
2019-04-27T13:49:06.059Z,74.40
2019-04-27T13:51:49.908Z,74.10
2019-04-27T13:54:26.096Z,73.90
2019-04-27T13:56:49.330Z,73.60
2019-04-27T13:59:18.523Z,73.20
2019-04-27T14:01:47.846Z,73.00
2019-04-27T14:04:16.791Z,72.80
2019-04-27T14:06:46.129Z,72.70
2019-04-27T14:09:15.655Z,72.50
2019-04-27T14:11:45.280Z,73.00
2019-04-27T14:14:14.531Z,72.10
2019-04-27T14:16:44.021Z,71.80
2019-04-27T14:19:13.147Z,71.80
2019-04-27T14:21:42.413Z,71.80
2019-04-27T14:24:11.967Z,72.10
2019-04-27T14:26:40.854Z,71.90
2019-04-27T14:29:09.992Z,71.50
2019-04-27T14:31:39.621Z,70.90
2019-04-27T14:34:09.330Z,70.60
2019-04-27T14:36:40.578Z,70.40
2019-04-27T14:39:12.324Z,70.40
2019-04-27T14:41:41.229Z,70.90
2019-04-27T14:44:10.637Z,71.60
2019-04-27T14:46:40.057Z,72.10
2019-04-27T14:49:09.185Z,72.60
2019-04-27T14:51:40.145Z,72.70
2019-04-27T14:54:09.519Z,72.70
2019-04-27T14:56:38.857Z,73.10
2019-04-27T14:59:07.806Z,73.50
2019-04-27T15:01:39.429Z,74.50
2019-04-27T15:04:07.559Z,74.40
2019-04-27T15:06:36.450Z,74.00
2019-04-27T15:09:07.323Z,74.00
2019-04-27T15:11:36.610Z,72.90
2019-04-27T15:14:05.992Z,72.50
2019-04-27T15:16:38.011Z,72.00
2019-04-27T15:19:13.161Z,72.00
2019-04-27T15:21:43.308Z,72.20
2019-04-27T15:24:13.690Z,71.40
2019-04-27T15:26:41.749Z,71.20
2019-04-27T15:29:12.465Z,71.30
2019-04-27T15:31:48.168Z,71.30
2019-04-27T15:34:35.588Z,71.30
2019-04-27T15:37:14.806Z,71.20
2019-04-27T15:40:18.561Z,70.60
2019-04-27T15:42:55.929Z,70.50
2019-04-27T15:45:24.825Z,70.70
2019-04-27T15:47:54.820Z,71.40
2019-04-27T15:50:30.326Z,71.60
2019-04-27T15:52:54.818Z,71.40
2019-04-27T15:55:32.132Z,71.40
2019-04-27T15:57:54.380Z,71.40
2019-04-27T16:00:28.795Z,71.20
2019-04-27T16:02:58.150Z,71.20
2019-04-27T16:05:30.573Z,71.60
2019-04-27T16:07:59.233Z,71.70
2019-04-27T16:10:32.857Z,72.00
2019-04-27T16:13:06.430Z,72.10
2019-04-27T16:15:30.403Z,72.00
2019-04-27T16:17:59.489Z,72.30
2019-04-27T16:20:32.638Z,72.40
2019-04-27T16:23:03.112Z,72.50
2019-04-27T16:25:32.819Z,72.70
2019-04-27T16:28:04.610Z,72.60
2019-04-27T16:30:31.991Z,72.00
2019-04-27T16:33:01.002Z,72.20
2019-04-27T16:35:30.323Z,71.60
2019-04-27T16:38:12.160Z,71.70
2019-04-27T16:40:41.324Z,71.20
2019-04-27T16:43:10.439Z,71.10
2019-04-27T16:45:39.762Z,71.20
2019-04-27T16:48:09.378Z,71.40
2019-04-27T16:50:39.040Z,71.40
2019-04-27T16:53:10.727Z,71.30
2019-04-27T16:55:38.982Z,70.90
2019-04-27T16:58:09.813Z,71.40
2019-04-27T17:00:40.947Z,71.30
2019-04-27T17:03:10.602Z,71.30
2019-04-27T17:05:39.539Z,71.80
2019-04-27T17:08:13.959Z,71.70
2019-04-27T17:10:39.545Z,71.70
2019-04-27T17:13:12.946Z,71.80
2019-04-27T17:16:18.928Z,71.80
2019-04-27T17:18:53.048Z,71.80
2019-04-27T17:21:24.492Z,72.10
2019-04-27T17:23:58.514Z,72.10
2019-04-27T17:26:24.854Z,72.10
2019-04-27T17:29:00.983Z,72.10
2019-04-27T17:31:32.580Z,71.90
2019-04-27T17:34:02.454Z,71.90
2019-04-27T17:36:32.182Z,72.10
2019-04-27T17:39:02.371Z,72.30
2019-04-27T17:41:32.443Z,72.10
2019-04-27T17:44:01.938Z,72.20
2019-04-27T17:46:34.037Z,72.10
2019-04-27T17:49:03.177Z,72.00
2019-04-27T17:51:35.158Z,71.90
2019-04-27T17:54:03.014Z,72.10
2019-04-27T17:56:36.133Z,72.30
2019-04-27T17:59:04.118Z,72.30
2019-04-27T18:01:33.333Z,72.20
2019-04-27T18:04:03.054Z,72.20
2019-04-27T18:06:32.258Z,72.00
2019-04-27T18:09:03.386Z,72.10
2019-04-27T18:11:32.894Z,72.40
2019-04-27T18:14:02.761Z,72.60
2019-04-27T18:16:34.462Z,72.70
2019-04-27T18:19:30.704Z,72.70
2019-04-27T18:22:04.360Z,72.60
2019-04-27T18:24:44.557Z,72.70
2019-04-27T18:27:27.545Z,72.70
2019-04-27T18:30:10.464Z,72.80
2019-04-27T18:32:40.427Z,72.80
2019-04-27T18:35:09.710Z,72.90
2019-04-27T18:37:39.265Z,72.90
2019-04-27T18:40:09.340Z,73.10
2019-04-27T18:42:38.543Z,73.10
2019-04-27T18:45:08.373Z,73.20
2019-04-27T18:47:40.576Z,73.30
2019-04-27T18:50:20.884Z,73.40
2019-04-27T18:52:58.103Z,73.40
2019-04-27T18:55:28.975Z,73.40
2019-04-27T18:57:59.628Z,73.40
2019-04-27T19:00:29.475Z,73.40
2019-04-27T19:02:58.581Z,74.10
2019-04-27T19:05:38.007Z,74.10
2019-04-27T19:07:58.897Z,73.90
2019-04-27T19:10:28.214Z,73.70
2019-04-27T19:12:58.493Z,73.60
2019-04-27T19:15:28.560Z,73.50
2019-04-27T19:17:58.160Z,73.50
2019-04-27T19:20:28.763Z,72.80
2019-04-27T19:22:59.734Z,73.50
2019-04-27T19:25:54.645Z,73.50
2019-04-27T19:28:51.984Z,73.50
2019-04-27T19:31:29.099Z,73.50
2019-04-27T19:33:57.957Z,73.60
2019-04-27T19:36:27.964Z,73.50
2019-04-27T19:38:58.346Z,73.50
2019-04-27T19:41:28.869Z,73.70
2019-04-27T19:43:59.897Z,73.80
2019-04-27T19:46:30.462Z,73.60
2019-04-27T19:48:59.573Z,73.60
2019-04-27T19:51:28.428Z,73.80
2019-04-27T19:53:58.172Z,73.90
2019-04-27T19:56:28.298Z,74.10
2019-04-27T19:58:59.802Z,74.00
2019-04-27T20:01:41.628Z,74.00
2019-04-27T20:04:22.893Z,74.20
2019-04-27T20:06:51.962Z,74.30
2019-04-27T20:09:32.307Z,74.30
2019-04-27T20:12:02.907Z,74.30
2019-04-27T20:14:51.029Z,74.40
2019-04-27T20:17:20.531Z,74.40
2019-04-27T20:19:51.593Z,74.60
2019-04-27T20:22:22.778Z,74.50
2019-04-27T20:24:52.031Z,75.30
2019-04-27T20:27:21.322Z,74.50
2019-04-27T20:29:50.313Z,74.70
2019-04-27T20:32:21.365Z,74.40
2019-04-27T20:34:51.313Z,74.60
2019-04-27T20:37:21.007Z,74.60
2019-04-27T20:39:51.456Z,74.50
2019-04-27T20:42:21.076Z,74.60
2019-04-27T20:44:51.556Z,74.70
2019-04-27T20:47:21.222Z,74.70
2019-04-27T20:49:50.360Z,74.60
2019-04-27T20:52:30.733Z,74.70
2019-04-27T20:55:01.230Z,74.70
2019-04-27T20:57:31.718Z,74.70
2019-04-27T21:00:02.018Z,74.80
2019-04-27T21:02:51.855Z,74.60
2019-04-27T21:05:33.653Z,74.90
2019-04-27T21:08:06.691Z,75.00
2019-04-27T21:10:34.918Z,75.00
2019-04-27T21:13:03.966Z,75.00
2019-04-27T21:15:32.777Z,75.00
2019-04-27T21:18:07.731Z,75.00
2019-04-27T21:20:37.154Z,75.00
2019-04-27T21:23:06.366Z,75.00
2019-04-27T21:25:35.626Z,75.10
2019-04-27T21:28:15.560Z,75.00
2019-04-27T21:30:35.400Z,75.10
2019-04-27T21:33:04.305Z,75.10
2019-04-27T21:35:34.095Z,75.20
2019-04-27T21:38:04.787Z,75.20
2019-04-27T21:40:33.829Z,75.20
2019-04-27T21:43:02.762Z,75.10
2019-04-27T21:45:31.871Z,75.10
2019-04-27T21:48:00.939Z,75.20
2019-04-27T21:50:31.432Z,75.20
2019-04-27T21:53:08.716Z,75.30
2019-04-27T21:55:37.855Z,75.30
2019-04-27T21:58:07.261Z,76.00
2019-04-27T22:00:55.602Z,75.20
2019-04-27T22:03:29.140Z,75.30
2019-04-27T22:05:59.061Z,75.40
2019-04-27T22:08:28.334Z,75.50
2019-04-27T22:10:58.349Z,75.40
2019-04-27T22:13:27.788Z,75.50
2019-04-27T22:15:57.429Z,75.60
2019-04-27T22:18:26.873Z,75.60
2019-04-27T22:20:56.427Z,75.60
2019-04-27T22:23:35.415Z,75.60
2019-04-27T22:26:04.744Z,75.70
2019-04-27T22:28:46.389Z,75.70
2019-04-27T22:31:05.484Z,75.70
2019-04-27T22:33:34.990Z,75.70
2019-04-27T22:36:04.726Z,75.80
2019-04-27T22:38:34.180Z,75.80
2019-04-27T22:41:21.420Z,75.80
2019-04-27T22:44:22.334Z,75.90
2019-04-27T22:46:52.509Z,75.90
2019-04-27T22:49:21.748Z,75.90
2019-04-27T22:51:51.350Z,75.90
2019-04-27T22:54:21.763Z,75.90
2019-04-27T22:56:52.564Z,75.90
2019-04-27T22:59:36.802Z,76.00
2019-04-27T23:02:16.266Z,75.90
2019-04-27T23:04:51.492Z,76.00
2019-04-27T23:07:21.341Z,75.90
2019-04-27T23:09:51.609Z,75.90
2019-04-27T23:12:23.068Z,76.10
2019-04-27T23:14:53.857Z,76.00
2019-04-27T23:17:41.584Z,75.80
2019-04-27T23:20:11.774Z,75.90
2019-04-27T23:22:41.170Z,76.00
2019-04-27T23:25:11.320Z,76.00
2019-04-27T23:27:42.029Z,76.00
2019-04-27T23:30:11.842Z,76.00
2019-04-27T23:32:46.603Z,76.10
2019-04-27T23:35:16.323Z,76.00
2019-04-27T23:37:50.823Z,76.10
2019-04-27T23:40:24.714Z,76.10
2019-04-27T23:42:54.160Z,76.20
2019-04-27T23:45:23.878Z,75.90
2019-04-27T23:47:53.537Z,76.10
2019-04-27T23:50:24.781Z,76.10
2019-04-27T23:53:05.798Z,76.10
2019-04-27T23:55:37.520Z,76.00
2019-04-27T23:58:08.458Z,76.00
